Time;durP1;ratioP1;P1;durP2;ratioP2;P2;SDS_P1;SDS_P2;PMS_P1;PMS_P2;Temp;Humidity;BMP_temperature;BMP_pressure;BME280_temperature;BME280_humidity;BME280_pressure;Samples;Min_cycle;Max_cycle;Signal;HPM_P1;HPM_P2
2021/11/18 00:04:39;;;;;;;28.33;12.00;;;;;5.70;102246.00;;;;10406679;28;20256;-79
2021/11/18 00:09:41;;;;;;;33.33;12.93;;;;;5.70;102238.00;;;;10423038;28;20200;-78
2021/11/18 00:14:43;;;;;;;24.47;11.07;;;;;5.60;102231.00;;;;10407191;28;20260;-78
2021/11/18 00:19:45;;;;;;;25.70;12.50;;;;;5.60;102241.00;;;;10365800;28;20614;-78
2021/11/18 00:24:47;;;;;;;28.33;12.00;;;;;5.50;102246.00;;;;10391716;28;20210;-78
2021/11/18 00:29:50;;;;;;;32.57;12.63;;;;;5.50;102241.00;;;;10438676;28;20567;-79
2021/11/18 00:34:52;;;;;;;28.17;12.57;;;;;5.50;102239.00;;;;10422748;28;20198;-78
2021/11/18 00:39:54;;;;;;;28.30;11.77;;;;;5.40;102245.00;;;;10438622;28;20230;-78
2021/11/18 00:44:57;;;;;;;34.87;12.23;;;;;5.30;102233.00;;;;10422087;28;20208;-79
2021/11/18 00:49:59;;;;;;;29.20;12.33;;;;;5.20;102236.00;;;;10404949;28;20559;-78
2021/11/18 00:55:06;;;;;;;26.73;12.47;;;;;5.20;102254.00;;;;10422134;28;20198;-78
2021/11/18 01:00:16;;;;;;;30.70;13.27;;;;;5.20;102254.00;;;;10421849;28;20256;-78
2021/11/18 01:05:20;;;;;;;31.67;12.63;;;;;5.10;102252.00;;;;10422065;28;20309;-78
2021/11/18 01:10:25;;;;;;;31.37;13.73;;;;;5.10;102278.00;;;;10431789;28;20197;-79
2021/11/18 01:15:31;;;;;;;28.90;12.33;;;;;5.00;102286.00;;;;10468213;28;20197;-78
2021/11/18 01:20:35;;;;;;;32.30;14.47;;;;;5.00;102272.00;;;;10454392;28;20271;-78
2021/11/18 01:25:38;;;;;;;35.83;14.53;;;;;5.00;102265.00;;;;10433751;28;20190;-79
2021/11/18 01:30:44;;;;;;;41.10;15.13;;;;;5.10;102260.00;;;;10429047;28;20693;-78
2021/11/18 01:35:49;;;;;;;33.73;14.20;;;;;5.10;102270.00;;;;10428575;28;20221;-78
2021/11/18 01:40:57;;;;;;;36.67;13.83;;;;;5.00;102273.00;;;;10387974;28;20226;-78
2021/11/18 01:46:09;;;;;;;35.53;15.17;;;;;5.00;102270.00;;;;10388295;28;20203;-78
2021/11/18 01:51:13;;;;;;;30.13;14.07;;;;;5.00;102284.00;;;;10387265;28;20218;-78
2021/11/18 01:56:23;;;;;;;35.10;15.00;;;;;4.90;102313.00;;;;10387078;28;20199;-78
2021/11/18 02:01:27;;;;;;;33.17;14.13;;;;;4.80;102326.00;;;;10371019;28;20214;-78
2021/11/18 02:06:33;;;;;;;32.57;13.70;;;;;4.70;102329.00;;;;10386271;28;20716;-78
2021/11/18 02:11:41;;;;;;;39.43;15.73;;;;;4.70;102319.00;;;;10407091;28;20198;-78
2021/11/18 02:16:47;;;;;;;31.27;15.20;;;;;4.70;102317.00;;;;10409888;28;20198;-79
2021/11/18 02:21:52;;;;;;;47.27;15.60;;;;;4.80;102325.00;;;;10426647;28;20760;-78
2021/11/18 02:26:56;;;;;;;33.23;15.67;;;;;4.80;102324.00;;;;10426516;28;20211;-78
2021/11/18 02:32:05;;;;;;;37.07;16.67;;;;;4.90;102316.00;;;;10410296;28;20230;-78
2021/11/18 02:37:18;;;;;;;42.57;16.30;;;;;4.80;102303.00;;;;10428148;28;20217;-78
2021/11/18 02:42:24;;;;;;;34.43;15.33;;;;;4.80;102315.00;;;;10410042;28;20225;-78
2021/11/18 02:47:26;;;;;;;40.53;15.93;;;;;4.80;102324.00;;;;10426262;28;20206;-78
2021/11/18 02:52:31;;;;;;;49.07;17.23;;;;;4.70;102330.00;;;;10409711;28;20293;-78
2021/11/18 02:57:33;;;;;;;40.37;17.33;;;;;4.70;102341.00;;;;10409469;28;20212;-78
2021/11/18 03:02:35;;;;;;;33.27;16.07;;;;;4.80;102330.00;;;;10409129;28;20194;-78
2021/11/18 03:07:38;;;;;;;41.10;18.17;;;;;4.80;102327.00;;;;10424461;28;20218;-78
2021/11/18 03:12:41;;;;;;;38.17;17.53;;;;;4.80;102331.00;;;;10421019;28;20704;-78
2021/11/18 03:17:44;;;;;;;38.43;18.00;;;;;4.80;102329.00;;;;10408399;28;20194;-78
2021/11/18 03:22:54;;;;;;;42.77;16.93;;;;;4.80;102323.00;;;;10424287;28;20198;-79
2021/11/18 03:27:57;;;;;;;41.33;18.57;;;;;4.70;102320.00;;;;10402900;28;20209;-78
2021/11/18 03:33:02;;;;;;;35.93;17.27;;;;;4.70;102327.00;;;;10424260;28;20226;-78
2021/11/18 03:38:04;;;;;;;46.53;19.17;;;;;4.70;102325.00;;;;10406329;28;20210;-78
2021/11/18 03:43:09;;;;;;;40.30;16.83;;;;;4.70;102324.00;;;;10407534;28;20198;-78
2021/11/18 03:48:19;;;;;;;48.20;18.77;;;;;4.60;102333.00;;;;10423753;28;20265;-79
2021/11/18 03:53:21;;;;;;;45.50;18.07;;;;;4.50;102346.00;;;;10423644;28;20194;-80
2021/11/18 03:58:24;;;;;;;39.87;16.60;;;;;4.50;102336.00;;;;10439974;28;20245;-79
2021/11/18 04:03:32;;;;;;;42.80;17.13;;;;;4.70;102346.00;;;;10406536;28;20197;-78
2021/11/18 04:08:35;;;;;;;33.23;18.27;;;;;4.80;102344.00;;;;10406988;28;20649;-78
2021/11/18 04:13:37;;;;;;;43.67;17.60;;;;;4.90;102344.00;;;;10406820;28;20196;-79
2021/11/18 04:18:42;;;;;;;43.70;18.97;;;;;5.00;102348.00;;;;10406520;28;20214;-80
2021/11/18 04:23:44;;;;;;;51.43;19.73;;;;;5.20;102350.00;;;;10389867;28;20233;-79
2021/11/18 04:28:47;;;;;;;50.90;20.43;;;;;5.40;102344.00;;;;10421814;28;20245;-78
2021/11/18 04:33:49;;;;;;;50.87;19.50;;;;;5.50;102343.00;;;;10405659;28;20254;-79
2021/11/18 04:38:52;;;;;;;44.20;20.17;;;;;5.60;102348.00;;;;10389330;28;20260;-78
2021/11/18 04:43:57;;;;;;;51.83;21.27;;;;;5.70;102345.00;;;;10406078;28;20225;-78
2021/11/18 04:48:59;;;;;;;49.80;20.80;;;;;5.80;102336.00;;;;10424970;28;20194;-78
2021/11/18 04:54:03;;;;;;;44.27;21.17;;;;;5.80;102340.00;;;;10429946;28;20282;-78
2021/11/18 04:59:06;;;;;;;49.13;19.67;;;;;5.90;102347.00;;;;10389064;28;20233;-78
2021/11/18 05:04:10;;;;;;;41.83;19.70;;;;;5.90;102345.00;;;;10389151;28;20437;-79
2021/11/18 05:09:13;;;;;;;43.40;19.57;;;;;6.00;102339.00;;;;10423107;28;20202;-78
2021/11/18 05:14:16;;;;;;;45.30;19.83;;;;;6.00;102344.00;;;;10429269;28;20296;-79
2021/11/18 05:19:21;;;;;;;48.20;19.97;;;;;6.00;102349.00;;;;10374605;28;20254;-78
2021/11/18 05:24:23;;;;;;;35.67;18.77;;;;;6.00;102342.00;;;;10387239;28;20684;-79
2021/11/18 05:29:29;;;;;;;45.20;18.00;;;;;5.90;102336.00;;;;10371354;28;20206;-78
2021/11/18 05:34:31;;;;;;;46.77;19.60;;;;;5.80;102335.00;;;;10385987;28;20285;-79
2021/11/18 05:39:34;;;;;;;44.90;17.97;;;;;5.80;102328.00;;;;10390243;28;20218;-78
2021/11/18 05:44:36;;;;;;;38.70;16.03;;;;;5.80;102325.00;;;;10411719;28;20635;-79
2021/11/18 05:49:38;;;;;;;41.37;17.23;;;;;5.70;102330.00;;;;10411603;28;20290;-79
2021/11/18 05:54:50;;;;;;;35.40;14.73;;;;;5.60;102338.00;;;;10427668;28;20198;-79
2021/11/18 05:59:53;;;;;;;38.43;16.17;;;;;5.50;102341.00;;;;10409482;28;20305;-78
2021/11/18 06:04:55;;;;;;;34.77;15.37;;;;;5.40;102340.00;;;;10410817;28;20233;-78
2021/11/18 06:09:58;;;;;;;39.73;14.57;;;;;5.40;102348.00;;;;10426840;28;20214;-79
2021/11/18 06:15:02;;;;;;;35.47;14.90;;;;;5.30;102360.00;;;;10409264;28;20233;-78
2021/11/18 06:20:07;;;;;;;39.90;14.13;;;;;5.30;102362.00;;;;10369501;28;20630;-79
2021/11/18 06:25:15;;;;;;;38.83;15.97;;;;;5.30;102367.00;;;;10382390;28;20218;-79
2021/11/18 06:30:22;;;;;;;40.83;14.80;;;;;5.30;102370.00;;;;10425967;28;20504;-79
2021/11/18 06:35:25;;;;;;;39.90;14.70;;;;;5.30;102364.00;;;;10442360;28;20221;-78
2021/11/18 06:40:28;;;;;;;36.93;13.37;;;;;5.40;102361.00;;;;10453486;28;20220;-78
2021/11/18 06:45:36;;;;;;;42.13;14.17;;;;;5.30;102361.00;;;;10466646;28;20202;-78
2021/11/18 06:50:47;;;;;;;39.90;14.20;;;;;5.20;102362.00;;;;10466551;28;20266;-78
2021/11/18 06:55:49;;;;;;;33.70;13.17;;;;;5.10;102369.00;;;;10433748;28;20695;-79
2021/11/18 07:00:51;;;;;;;33.87;13.80;;;;;5.00;102384.00;;;;10450154;28;20240;-78
2021/11/18 07:05:55;;;;;;;29.17;13.50;;;;;5.00;102374.00;;;;10449851;28;20228;-78
2021/11/18 07:10:58;;;;;;;33.73;15.00;;;;;5.00;102374.00;;;;10407881;28;20208;-78
2021/11/18 07:16:03;;;;;;;40.60;14.10;;;;;5.10;102383.00;;;;10407613;28;20264;-79
2021/11/18 07:21:06;;;;;;;43.20;14.23;;;;;5.30;102387.00;;;;10423862;28;20305;-79
2021/11/18 07:26:10;;;;;;;40.33;14.27;;;;;5.40;102389.00;;;;10407339;28;20206;-79
2021/11/18 07:31:14;;;;;;;39.00;14.70;;;;;5.50;102397.00;;;;10374786;28;20310;-79
2021/11/18 07:36:21;;;;;;;43.03;15.23;;;;;5.60;102401.00;;;;10423177;28;20198;-79
2021/11/18 07:41:23;;;;;;;41.73;14.77;;;;;5.70;102389.00;;;;10458082;28;20597;-79
2021/11/18 07:46:47;;;;;;;33.23;12.77;;;;;5.70;102409.00;;;;10467382;28;20225;-79
2021/11/18 07:51:58;;;;;;;43.67;14.17;;;;;5.80;102406.00;;;;10422788;28;20198;-78
2021/11/18 07:57:01;;;;;;;26.43;12.50;;;;;6.00;102401.00;;;;10398428;28;20213;-78
2021/11/18 08:02:04;;;;;;;35.63;14.10;;;;;6.30;102408.00;;;;10411141;28;20301;-78
2021/11/18 08:07:07;;;;;;;34.07;12.57;;;;;6.40;102414.00;;;;10406981;28;20295;-78
2021/11/18 08:12:11;;;;;;;35.73;11.83;;;;;6.60;102432.00;;;;10396401;28;20602;-78
2021/11/18 08:17:15;;;;;;;32.23;11.97;;;;;6.60;102425.00;;;;10396371;28;20198;-78
2021/11/18 08:22:19;;;;;;;32.00;11.57;;;;;6.70;102433.00;;;;10375213;28;20222;-78
2021/11/18 08:27:23;;;;;;;31.07;12.23;;;;;6.90;102448.00;;;;10438572;28;20206;-78
2021/11/18 08:32:26;;;;;;;27.50;10.40;;;;;7.00;102463.00;;;;10374878;28;20733;-78
2021/11/18 08:37:39;;;;;;;27.20;11.33;;;;;7.20;102453.00;;;;10402456;28;20213;-78
2021/11/18 08:42:41;;;;;;;26.70;11.73;;;;;7.50;102457.00;;;;10400389;28;20685;-79
2021/11/18 08:47:43;;;;;;;20.97;9.43;;;;;8.00;102457.00;;;;10438692;28;20249;-78
2021/11/18 08:52:47;;;;;;;25.00;10.50;;;;;8.50;102457.00;;;;10452228;28;20227;-78
2021/11/18 08:57:51;;;;;;;26.57;8.80;;;;;9.10;102457.00;;;;10479650;28;20201;-78
2021/11/18 09:03:10;;;;;;;16.67;6.87;;;;;9.10;102466.00;;;;10428090;28;20230;-78
2021/11/18 09:08:17;;;;;;;20.80;8.50;;;;;8.80;102453.00;;;;10406423;28;20646;-78
2021/11/18 09:13:32;;;;;;;22.13;7.50;;;;;8.60;102451.00;;;;10404988;28;20289;-79
2021/11/18 09:18:37;;;;;;;18.77;7.60;;;;;8.50;102443.00;;;;10405114;28;20206;-78
2021/11/18 09:23:44;;;;;;;20.90;8.20;;;;;8.40;102437.00;;;;10422048;28;20202;-78
2021/11/18 09:28:46;;;;;;;19.63;8.00;;;;;8.70;102436.00;;;;10405477;28;20252;-78
2021/11/18 09:34:00;;;;;;;22.60;8.67;;;;;9.20;102448.00;;;;10406993;28;20368;-78
2021/11/18 09:39:07;;;;;;;18.93;8.73;;;;;9.60;102452.00;;;;10413662;28;20711;-78
2021/11/18 09:44:31;;;;;;;22.10;8.07;;;;;10.10;102448.00;;;;10429155;28;20744;-78
2021/11/18 09:49:48;;;;;;;22.50;8.63;;;;;10.60;102455.00;;;;10395372;28;20208;-78
2021/11/18 09:55:13;;;;;;;21.33;9.80;;;;;11.10;102456.00;;;;10427535;28;20565;-78
2021/11/18 10:00:40;;;;;;;22.67;7.60;;;;;11.40;102461.00;;;;10427878;28;20218;-78
2021/11/18 10:06:02;;;;;;;20.30;7.40;;;;;11.60;102471.00;;;;10428168;28;20265;-78
2021/11/18 10:11:05;;;;;;;19.80;7.87;;;;;11.40;102484.00;;;;10427746;28;20753;-78
2021/11/18 10:16:28;;;;;;;19.83;8.73;;;;;11.50;102477.00;;;;10411254;28;20194;-79
2021/11/18 10:21:39;;;;;;;17.97;7.63;;;;;11.70;102476.00;;;;10371717;28;20238;-78
2021/11/18 10:26:49;;;;;;;18.30;8.07;;;;;11.80;102475.00;;;;10411468;28;20194;-78
2021/11/18 10:32:04;;;;;;;18.80;7.60;;;;;12.10;102470.00;;;;10410884;28;20273;-78
2021/11/18 10:37:28;;;;;;;19.17;7.57;;;;;12.10;102470.00;;;;10444852;28;20253;-78
2021/11/18 10:42:35;;;;;;;24.97;7.40;;;;;12.30;102470.00;;;;10467386;28;20570;-78
2021/11/18 10:47:50;;;;;;;19.20;6.87;;;;;12.30;102474.00;;;;10406322;28;20207;-78
2021/11/18 10:53:07;;;;;;;18.87;6.77;;;;;12.60;102466.00;;;;10368881;28;20198;-78
2021/11/18 10:58:29;;;;;;;22.40;8.30;;;;;12.80;102458.00;;;;10369087;28;20290;-78
2021/11/18 11:03:34;;;;;;;16.60;7.10;;;;;13.00;102456.00;;;;10368340;28;20218;-78
2021/11/18 11:08:42;;;;;;;21.50;7.60;;;;;13.10;102459.00;;;;10396447;28;20251;-78
2021/11/18 11:14:37;;;;;;;22.10;7.27;;;;;13.10;102454.00;;;;10409903;28;20190;-78
2021/11/18 11:19:46;;;;;;;21.20;6.90;;;;;13.20;102443.00;;;;10349388;28;20219;-78
2021/11/18 11:25:22;;;;;;;18.00;7.80;;;;;13.10;102446.00;;;;10394110;28;20210;-78
2021/11/18 11:30:46;;;;;;;17.53;7.63;;;;;13.20;102433.00;;;;10389582;28;20237;-78
2021/11/18 11:35:58;;;;;;;23.93;7.00;;;;;13.30;102433.00;;;;10399908;28;20209;-78
2021/11/18 11:41:06;;;;;;;13.73;6.03;;;;;13.30;102429.00;;;;10350732;28;20229;-78
2021/11/18 11:46:18;;;;;;;21.23;6.47;;;;;13.40;102432.00;;;;10373941;28;20234;-78
2021/11/18 11:51:40;;;;;;;16.00;6.93;;;;;13.60;102415.00;;;;10382960;28;20641;-78
2021/11/18 11:56:45;;;;;;;15.60;6.03;;;;;13.70;102408.00;;;;10381726;28;20677;-78
2021/11/18 12:02:12;;;;;;;21.00;6.37;;;;;13.80;102400.00;;;;10390001;28;20254;-79
2021/11/18 12:07:22;;;;;;;14.50;6.00;;;;;13.90;102405.00;;;;10423149;28;20225;-78
2021/11/18 12:12:48;;;;;;;11.90;4.97;;;;;13.80;102405.00;;;;10406578;28;20613;-78
2021/11/18 12:18:06;;;;;;;17.33;5.23;;;;;13.80;102398.00;;;;10422763;28;20206;-78
2021/11/18 12:23:12;;;;;;;19.00;5.80;;;;;13.90;102398.00;;;;10422961;28;20669;-78
2021/11/18 12:28:21;;;;;;;20.70;5.37;;;;;13.90;102393.00;;;;10381239;28;20203;-78
2021/11/18 12:33:23;;;;;;;15.20;4.50;;;;;13.90;102395.00;;;;10349072;28;20270;-78
2021/11/18 12:38:46;;;;;;;22.67;5.00;;;;;13.90;102397.00;;;;10410106;28;20210;-78
2021/11/18 12:44:12;;;;;;;17.33;5.37;;;;;14.00;102395.00;;;;10422357;28;20690;-78
2021/11/18 12:49:38;;;;;;;15.63;5.60;;;;;13.90;102383.00;;;;10422420;28;20665;-78
2021/11/18 12:55:13;;;;;;;17.00;4.67;;;;;14.00;102373.00;;;;10408923;28;20221;-78
2021/11/18 13:00:19;;;;;;;19.73;5.63;;;;;14.10;102365.00;;;;10358482;28;20670;-78
2021/11/18 13:05:21;;;;;;;17.53;4.60;;;;;13.50;102373.00;;;;10397516;28;20667;-78
2021/11/18 13:10:35;;;;;;;20.80;5.03;;;;;13.00;102365.00;;;;10410988;28;20246;-78
2021/11/18 13:15:43;;;;;;;15.47;4.87;;;;;12.80;102357.00;;;;10414405;28;20201;-78
2021/11/18 13:21:25;;;;;;;17.27;4.50;;;;;13.10;102362.00;;;;10429315;28;20245;-78
2021/11/18 13:26:48;;;;;;;16.20;4.37;;;;;13.20;102363.00;;;;10374793;28;20557;-78
2021/11/18 13:31:59;;;;;;;14.57;4.97;;;;;13.30;102357.00;;;;10409590;28;20577;-78
2021/11/18 13:37:12;;;;;;;20.20;5.00;;;;;13.30;102355.00;;;;10397033;28;20660;-78
2021/11/18 13:42:23;;;;;;;19.57;5.30;;;;;13.30;102357.00;;;;10412037;28;20214;-78
2021/11/18 13:47:33;;;;;;;16.67;4.67;;;;;13.30;102349.00;;;;10411941;28;20292;-78
2021/11/18 13:52:38;;;;;;;20.13;4.57;;;;;13.30;102352.00;;;;10395890;28;20256;-78
2021/11/18 13:57:45;;;;;;;14.37;5.23;;;;;13.40;102346.00;;;;10428403;28;20198;-79
2021/11/18 14:02:59;;;;;;;17.53;3.97;;;;;13.20;102354.00;;;;10397792;28;20276;-78
2021/11/18 14:08:18;;;;;;;16.17;3.70;;;;;13.10;102355.00;;;;10414658;28;20221;-78
2021/11/18 14:13:31;;;;;;;16.33;4.57;;;;;12.80;102341.00;;;;10423985;28;20193;-78
2021/11/18 14:18:35;;;;;;;12.20;4.03;;;;;12.60;102353.00;;;;10420387;28;20198;-77
2021/11/18 14:23:47;;;;;;;20.60;4.87;;;;;12.40;102336.00;;;;10415075;28;20221;-77
2021/11/18 14:29:25;;;;;;;11.33;3.93;;;;;12.20;102330.00;;;;10423125;28;20244;-78
2021/11/18 14:34:35;;;;;;;14.77;5.17;;;;;12.10;102333.00;;;;10395557;28;20225;-78
2021/11/18 14:39:39;;;;;;;17.80;4.53;;;;;11.90;102335.00;;;;10413697;28;20198;-78
2021/11/18 14:44:44;;;;;;;16.97;4.53;;;;;11.70;102328.00;;;;10393649;28;20206;-77
2021/11/18 14:50:11;;;;;;;17.53;5.33;;;;;11.60;102337.00;;;;10401013;28;20195;-78
2021/11/18 14:55:22;;;;;;;14.70;4.43;;;;;11.40;102340.00;;;;10425498;28;20596;-78
2021/11/18 15:00:32;;;;;;;13.20;4.47;;;;;11.30;102328.00;;;;10402067;28;20210;-78
2021/11/18 15:05:35;;;;;;;19.43;5.33;;;;;11.10;102320.00;;;;10416572;28;20293;-78
2021/11/18 15:10:38;;;;;;;17.43;5.20;;;;;10.90;102324.00;;;;10379876;28;20661;-78
2021/11/18 15:15:41;;;;;;;26.90;4.67;;;;;10.70;102325.00;;;;10402694;28;20214;-78
2021/11/18 15:20:49;;;;;;;19.47;5.13;;;;;10.60;102324.00;;;;10383610;28;20700;-78
2021/11/18 15:25:51;;;;;;;18.10;5.07;;;;;10.40;102321.00;;;;10414900;28;20222;-78
2021/11/18 15:31:01;;;;;;;15.70;5.47;;;;;10.30;102333.00;;;;10378189;28;20230;-78
2021/11/18 15:36:05;;;;;;;20.57;5.10;;;;;10.20;102344.00;;;;10380342;28;20662;-78
2021/11/18 15:41:16;;;;;;;18.83;5.03;;;;;10.00;102358.00;;;;10377028;28;20215;-78
2021/11/18 15:46:19;;;;;;;17.70;5.33;;;;;9.90;102362.00;;;;10382312;28;20199;-78
2021/11/18 15:51:23;;;;;;;17.13;4.93;;;;;9.80;102355.00;;;;10421011;28;20669;-78
2021/11/18 15:56:28;;;;;;;15.00;5.43;;;;;9.80;102361.00;;;;10377603;28;20206;-78
2021/11/18 16:01:36;;;;;;;16.77;4.83;;;;;9.70;102381.00;;;;10395746;28;20268;-78
2021/11/18 16:06:41;;;;;;;17.90;4.90;;;;;9.70;102377.00;;;;10395963;28;20199;-77
2021/11/18 16:11:55;;;;;;;19.50;5.40;;;;;9.70;102375.00;;;;10423776;28;20261;-79
2021/11/18 16:17:00;;;;;;;14.33;4.83;;;;;9.70;102383.00;;;;10382513;28;20249;-78
2021/11/18 16:22:13;;;;;;;24.83;5.33;;;;;9.80;102388.00;;;;10382234;28;20207;-78
2021/11/18 16:27:16;;;;;;;19.43;7.23;;;;;9.90;102389.00;;;;10385352;28;20202;-77
2021/11/18 16:32:28;;;;;;;17.27;5.90;;;;;9.90;102382.00;;;;10413528;28;20784;-77
2021/11/18 16:37:37;;;;;;;17.23;5.57;;;;;9.90;102381.00;;;;10406317;28;20296;-77
2021/11/18 16:43:31;;;;;;;28.17;5.60;;;;;9.80;102391.00;;;;10395292;28;20199;-77
2021/11/18 16:49:56;;;;;;;20.43;5.97;;;;;9.60;102373.00;;;;10430513;28;21098;-78
2021/11/18 16:56:06;;;;;;;18.83;5.40;;;;;9.50;102389.00;;;;10435232;28;20204;-77
2021/11/18 17:01:19;;;;;;;24.70;5.77;;;;;9.40;102385.00;;;;10427332;28;20241;-78
2021/11/18 17:06:32;;;;;;;25.17;6.80;;;;;9.40;102389.00;;;;10388070;28;20225;-78
2021/11/18 17:18:50;;;;;;;18.20;6.07;;;;;9.30;102369.00;;;;10420589;28;20216;-77
2021/11/18 17:23:53;;;;;;;21.87;6.70;;;;;9.30;102381.00;;;;10413277;28;20222;-77
2021/11/18 17:28:58;;;;;;;20.90;6.97;;;;;9.30;102394.00;;;;10445927;28;20562;-77
2021/11/18 17:34:00;;;;;;;21.53;6.57;;;;;9.20;102398.00;;;;10445637;28;20229;-77
2021/11/18 17:39:26;;;;;;;20.37;7.23;;;;;9.10;102402.00;;;;10417952;28;20255;-77
2021/11/18 17:44:28;;;;;;;20.97;7.43;;;;;9.10;102401.00;;;;10420603;28;20585;-77
2021/11/18 17:49:32;;;;;;;24.03;9.37;;;;;9.10;102395.00;;;;10414521;28;20216;-77
2021/11/18 17:54:35;;;;;;;21.27;8.00;;;;;9.10;102385.00;;;;10417051;28;20230;-78
2021/11/18 17:59:37;;;;;;;21.57;7.53;;;;;9.10;102381.00;;;;10436054;28;20214;-77
2021/11/18 18:04:41;;;;;;;31.77;8.70;;;;;9.20;102396.00;;;;10399373;28;20264;-77
2021/11/18 18:09:43;;;;;;;23.13;7.60;;;;;9.20;102418.00;;;;10423458;28;20207;-77
2021/11/18 18:14:46;;;;;;;23.10;8.40;;;;;9.20;102424.00;;;;10443686;28;20910;-78
2021/11/18 18:19:49;;;;;;;28.17;8.30;;;;;9.10;102422.00;;;;10408308;28;20202;-77
2021/11/18 18:24:51;;;;;;;28.03;9.70;;;;;9.10;102405.00;;;;10409636;28;20253;-77
2021/11/18 18:29:54;;;;;;;26.07;8.10;;;;;9.10;102428.00;;;;10425705;28;20202;-77
2021/11/18 18:34:58;;;;;;;23.30;7.90;;;;;9.10;102419.00;;;;10425760;28;20203;-77
2021/11/18 18:40:16;;;;;;;24.13;9.03;;;;;9.30;102430.00;;;;10425530;28;20252;-77
2021/11/18 18:45:21;;;;;;;27.90;9.97;;;;;9.50;102441.00;;;;10425611;28;20205;-78
2021/11/18 18:50:26;;;;;;;23.77;9.00;;;;;9.70;102447.00;;;;10438600;28;20546;-77
2021/11/18 18:55:29;;;;;;;26.07;8.93;;;;;9.80;102452.00;;;;10421595;28;20215;-77
2021/11/18 19:00:35;;;;;;;25.23;8.77;;;;;9.80;102454.00;;;;10402707;28;20215;-78
2021/11/18 19:05:38;;;;;;;25.27;8.67;;;;;9.90;102462.00;;;;10419938;28;20661;-78
2021/11/18 19:10:40;;;;;;;25.00;8.70;;;;;10.00;102465.00;;;;10403070;28;20194;-78
2021/11/18 19:16:04;;;;;;;22.10;8.73;;;;;10.00;102467.00;;;;10417587;28;20209;-77
2021/11/18 19:21:30;;;;;;;18.77;8.30;;;;;10.10;102478.00;;;;10419186;28;20217;-77
2021/11/18 19:27:12;;;;;;;17.37;7.07;;;;;10.10;102478.00;;;;10414535;28;20199;-77
2021/11/18 19:32:39;;;;;;;27.70;8.50;;;;;10.10;102475.00;;;;10441503;28;20680;-78
2021/11/18 19:37:54;;;;;;;18.03;8.30;;;;;10.20;102484.00;;;;10384329;28;20194;-79
2021/11/18 19:42:57;;;;;;;21.57;7.97;;;;;10.20;102486.00;;;;10419484;28;20254;-77
2021/11/18 19:48:03;;;;;;;18.90;8.43;;;;;10.30;102493.00;;;;10441731;28;20277;-78
2021/11/18 19:53:15;;;;;;;21.77;8.93;;;;;10.30;102490.00;;;;10435247;28;20198;-78
2021/11/18 19:58:47;;;;;;;21.73;8.00;;;;;10.30;102497.00;;;;10421321;28;20244;-78
2021/11/18 20:04:50;;;;;;;18.67;9.10;;;;;10.40;102489.00;;;;10405896;28;20255;-77
2021/11/18 20:10:43;;;;;;;22.43;8.60;;;;;10.30;102479.00;;;;10422596;28;20194;-78
2021/11/18 20:17:08;;;;;;;21.13;8.40;;;;;10.40;102480.00;;;;10403857;28;20186;-78
2021/11/18 20:22:45;;;;;;;;;;;;;;;;;;;;;
2021/11/18 20:28:24;;;;;;;21.90;8.50;;;;;10.40;102494.00;;;;10434911;28;20287;-78
2021/11/18 20:34:52;;;;;;;19.80;7.97;;;;;10.40;102505.00;;;;10427708;23;20330;-77
2021/11/18 20:40:08;;;;;;;23.87;9.10;;;;;10.50;102502.00;;;;10293473;28;20211;-78
2021/11/18 20:45:25;;;;;;;21.33;9.17;;;;;10.50;102504.00;;;;10311901;28;20192;-78
2021/11/18 20:50:35;;;;;;;25.13;10.80;;;;;10.50;102510.00;;;;10287937;28;20215;-78
2021/11/18 20:55:39;;;;;;;17.00;8.60;;;;;10.50;102512.00;;;;10312074;28;20208;-78
2021/11/18 21:00:47;;;;;;;22.17;9.57;;;;;10.50;102507.00;;;;10335636;28;20235;-78
2021/11/18 21:05:55;;;;;;;30.00;9.90;;;;;10.50;102512.00;;;;10320952;28;20202;-77
2021/11/18 21:11:05;;;;;;;28.90;10.63;;;;;10.50;102512.00;;;;10337357;28;20731;-78
2021/11/18 21:16:10;;;;;;;25.83;9.73;;;;;10.50;102516.00;;;;10325769;28;20224;-77
2021/11/18 21:21:15;;;;;;;19.13;11.03;;;;;10.50;102522.00;;;;10314342;28;20224;-78
2021/11/18 21:26:17;;;;;;;22.50;10.57;;;;;10.50;102529.00;;;;10310153;28;20258;-78
2021/11/18 21:31:22;;;;;;;24.43;11.33;;;;;10.50;102523.00;;;;10328783;28;20259;-78
2021/11/18 21:36:53;;;;;;;24.30;11.63;;;;;10.50;102538.00;;;;10302518;28;20231;-78
2021/11/18 21:41:58;;;;;;;30.73;12.00;;;;;10.50;102533.00;;;;10283904;28;20213;-79
2021/11/18 21:47:08;;;;;;;29.83;12.27;;;;;10.50;102534.00;;;;10315288;28;20205;-78
2021/11/18 21:52:11;;;;;;;24.47;11.83;;;;;10.50;102530.00;;;;10315793;28;20192;-78
2021/11/18 21:57:26;;;;;;;23.63;14.23;;;;;10.40;102534.00;;;;10320992;28;20232;-77
2021/11/18 22:02:28;;;;;;;24.20;12.93;;;;;10.40;102532.00;;;;10299223;28;20380;-78
2021/11/18 22:07:33;;;;;;;24.00;12.23;;;;;10.40;102520.00;;;;10318930;28;20604;-77
2021/11/18 22:12:35;;;;;;;24.80;13.20;;;;;10.40;102527.00;;;;10311966;28;20197;-77
2021/11/18 22:18:07;;;;;;;21.33;13.27;;;;;10.40;102520.00;;;;10298049;28;20311;-78
2021/11/18 22:23:10;;;;;;;29.10;13.83;;;;;10.40;102521.00;;;;10300804;28;20220;-78
2021/11/18 22:28:14;;;;;;;25.77;13.87;;;;;10.40;102525.00;;;;10288159;28;20204;-77
2021/11/18 22:33:16;;;;;;;29.40;13.57;;;;;10.40;102520.00;;;;10308508;28;20227;-78
2021/11/18 22:38:20;;;;;;;24.30;13.37;;;;;10.30;102511.00;;;;10319992;28;20207;-79
2021/11/18 22:43:23;;;;;;;28.03;13.53;;;;;10.30;102512.00;;;;10339064;28;20259;-77
2021/11/18 22:48:26;;;;;;;25.47;14.50;;;;;10.30;102512.00;;;;10318974;28;20193;-78
2021/11/18 22:53:29;;;;;;;27.77;14.47;;;;;10.30;102518.00;;;;10314350;28;20572;-78
2021/11/18 22:58:31;;;;;;;37.47;15.00;;;;;10.20;102522.00;;;;10319586;28;20215;-78
2021/11/18 23:03:36;;;;;;;26.07;14.00;;;;;10.20;102511.00;;;;10317162;28;20223;-78
2021/11/18 23:08:39;;;;;;;27.20;15.73;;;;;10.20;102526.00;;;;10318490;28;20579;-78
2021/11/18 23:13:42;;;;;;;28.53;16.03;;;;;10.10;102521.00;;;;10310222;28;20283;-78
2021/11/18 23:18:46;;;;;;;28.10;16.20;;;;;10.10;102514.00;;;;10334808;28;20267;-78
2021/11/18 23:23:49;;;;;;;32.07;16.37;;;;;10.10;102514.00;;;;10297824;28;20315;-78
2021/11/18 23:29:05;;;;;;;31.33;16.57;;;;;10.20;102513.00;;;;10334384;28;20200;-78
2021/11/18 23:34:11;;;;;;;36.47;17.80;;;;;10.20;102508.00;;;;10318197;28;20223;-78
2021/11/18 23:39:17;;;;;;;32.60;16.60;;;;;10.20;102513.00;;;;10316720;28;20255;-78
2021/11/18 23:44:22;;;;;;;33.07;16.63;;;;;10.20;102517.00;;;;10316938;28;20201;-78
2021/11/18 23:49:25;;;;;;;30.57;16.77;;;;;10.20;102514.00;;;;10319239;28;20203;-78
2021/11/18 23:54:27;;;;;;;33.23;16.10;;;;;10.20;102505.00;;;;10348340;28;20243;-77
2021/11/18 23:59:29;;;;;;;31.50;17.50;;;;;10.20;102513.00;;;;10293289;28;20571;-78
